createdAt,value
2018-08-17T00:00:37.544Z,0.00
2018-08-17T00:01:58.469Z,0.00
2018-08-17T00:02:37.407Z,0.00
2018-08-17T00:03:37.333Z,0.00
2018-08-17T00:04:58.253Z,0.00
2018-08-17T00:05:37.198Z,0.00
2018-08-17T00:06:58.113Z,0.00
2018-08-17T00:07:37.067Z,0.00
2018-08-17T00:08:36.996Z,0.00
2018-08-17T00:09:57.907Z,0.00
2018-08-17T00:10:36.851Z,0.00
2018-08-17T00:11:57.773Z,0.00
2018-08-17T00:12:36.708Z,0.00
2018-08-17T00:13:36.640Z,0.00
2018-08-17T00:14:57.555Z,0.00
2018-08-17T00:15:36.505Z,0.00
2018-08-17T00:16:57.419Z,0.00
2018-08-17T00:17:36.371Z,0.00
2018-08-17T00:18:36.297Z,0.00
2018-08-17T00:19:57.211Z,0.00
2018-08-17T00:20:36.156Z,0.00
2018-08-17T00:21:57.101Z,0.00
2018-08-17T00:22:36.017Z,0.00
2018-08-17T00:23:35.956Z,0.00
2018-08-17T00:24:56.862Z,0.00
2018-08-17T00:25:35.813Z,0.00
2018-08-17T00:26:56.720Z,0.00
2018-08-17T00:27:35.674Z,0.00
2018-08-17T00:28:35.607Z,0.00
2018-08-17T00:29:56.520Z,0.00
2018-08-17T00:30:35.463Z,0.00
2018-08-17T00:31:56.374Z,0.00
2018-08-17T00:32:35.323Z,0.00
2018-08-17T00:33:35.255Z,0.00
2018-08-17T00:34:56.171Z,0.00
2018-08-17T00:35:35.110Z,0.00
2018-08-17T00:36:56.028Z,0.00
2018-08-17T00:37:34.974Z,0.00
2018-08-17T00:38:34.902Z,0.00
2018-08-17T00:39:55.822Z,0.00
2018-08-17T00:40:34.765Z,0.00
2018-08-17T00:41:55.685Z,0.00
2018-08-17T00:42:34.628Z,0.00
2018-08-17T00:43:34.560Z,0.00
2018-08-17T00:44:55.468Z,0.00
2018-08-17T00:45:34.419Z,0.00
2018-08-17T00:46:55.361Z,0.00
2018-08-17T00:47:34.277Z,0.00
2018-08-17T00:48:34.209Z,0.00
2018-08-17T00:49:55.120Z,0.00
2018-08-17T00:50:34.073Z,0.00
2018-08-17T00:51:54.985Z,0.00
2018-08-17T00:52:33.955Z,0.00
2018-08-17T00:53:33.860Z,0.00
2018-08-17T00:54:54.784Z,0.00
2018-08-17T00:55:33.766Z,0.00
2018-08-17T00:56:54.642Z,0.00
2018-08-17T00:57:33.590Z,0.00
2018-08-17T00:58:33.520Z,0.00
2018-08-17T00:59:54.423Z,0.00
2018-08-17T01:00:33.368Z,0.00
2018-08-17T01:01:54.282Z,0.00
2018-08-17T01:02:33.234Z,0.00
2018-08-17T01:03:33.161Z,0.00
2018-08-17T01:04:54.073Z,0.00
2018-08-17T01:05:33.020Z,0.00
2018-08-17T01:06:53.935Z,0.00
2018-08-17T01:07:32.876Z,0.00
2018-08-17T01:08:32.804Z,0.00
2018-08-17T01:09:53.720Z,0.00
2018-08-17T01:10:32.669Z,0.00
2018-08-17T01:11:53.590Z,0.00
2018-08-17T01:12:32.525Z,0.00
2018-08-17T01:13:32.454Z,0.00
2018-08-17T01:14:53.372Z,0.00
2018-08-17T01:15:32.317Z,0.00
2018-08-17T01:16:53.229Z,0.00
2018-08-17T01:17:32.178Z,0.00
2018-08-17T01:18:32.107Z,0.00
2018-08-17T01:19:53.025Z,0.00
2018-08-17T01:20:31.964Z,0.00
2018-08-17T01:21:52.883Z,0.00
2018-08-17T01:22:31.827Z,0.00
2018-08-17T01:23:31.753Z,0.00
2018-08-17T01:24:52.669Z,0.00
2018-08-17T01:25:31.618Z,0.00
2018-08-17T01:26:52.532Z,0.00
2018-08-17T01:27:31.475Z,0.00
2018-08-17T01:28:31.404Z,0.00
2018-08-17T01:29:52.315Z,0.00
2018-08-17T01:30:31.263Z,0.00
2018-08-17T01:31:52.173Z,0.00
2018-08-17T01:32:31.118Z,0.00
2018-08-17T01:33:31.048Z,0.00
2018-08-17T01:34:51.963Z,0.00
2018-08-17T01:35:30.907Z,0.00
2018-08-17T01:36:51.821Z,0.00
2018-08-17T01:37:30.779Z,0.00
2018-08-17T01:38:30.703Z,0.00
2018-08-17T01:39:51.616Z,0.00
2018-08-17T01:40:30.557Z,0.00
2018-08-17T01:41:51.469Z,0.00
2018-08-17T01:42:30.417Z,0.00
2018-08-17T01:43:30.347Z,0.00
2018-08-17T01:44:51.263Z,0.00
2018-08-17T01:45:30.201Z,0.00
2018-08-17T01:46:51.131Z,0.00
2018-08-17T01:47:30.062Z,0.00
2018-08-17T01:48:29.996Z,0.00
2018-08-17T01:49:50.907Z,0.00
2018-08-17T01:50:29.867Z,0.00
2018-08-17T01:51:50.762Z,0.00
2018-08-17T01:52:29.714Z,0.00
2018-08-17T01:53:29.644Z,0.00
2018-08-17T01:54:50.555Z,0.00
2018-08-17T01:55:29.501Z,0.00
2018-08-17T01:56:50.416Z,0.00
2018-08-17T01:57:29.355Z,0.00
2018-08-17T01:58:29.287Z,0.00
2018-08-17T01:59:50.209Z,0.00
2018-08-17T02:00:29.146Z,0.00
2018-08-17T02:01:50.058Z,0.00
2018-08-17T02:02:29.005Z,0.00
2018-08-17T02:03:28.934Z,0.00
2018-08-17T02:04:49.846Z,0.00
2018-08-17T02:05:28.793Z,0.00
2018-08-17T02:06:49.710Z,0.00
2018-08-17T02:07:28.650Z,0.00
2018-08-17T02:08:28.578Z,0.00
2018-08-17T02:09:49.495Z,0.00
2018-08-17T02:10:28.440Z,0.00
2018-08-17T02:11:49.350Z,0.00
2018-08-17T02:12:28.302Z,0.00
2018-08-17T02:13:28.224Z,0.00
2018-08-17T02:14:49.149Z,0.00
2018-08-17T02:15:28.083Z,0.00
2018-08-17T02:16:48.997Z,0.00
2018-08-17T02:17:27.945Z,0.00
2018-08-17T02:18:27.875Z,0.00
2018-08-17T02:19:48.786Z,0.00
2018-08-17T02:20:27.730Z,0.00
2018-08-17T02:21:48.641Z,0.00
2018-08-17T02:22:27.591Z,0.00
2018-08-17T02:23:27.521Z,0.00
2018-08-17T02:24:48.434Z,0.00
2018-08-17T02:25:27.379Z,0.00
2018-08-17T02:26:48.286Z,0.00
2018-08-17T02:27:27.238Z,0.00
2018-08-17T02:28:27.167Z,0.00
2018-08-17T02:29:48.079Z,0.00
2018-08-17T02:30:27.020Z,0.00
2018-08-17T02:31:47.939Z,0.00
2018-08-17T02:32:26.884Z,0.00
2018-08-17T02:33:26.810Z,0.00
2018-08-17T02:34:47.728Z,0.00
2018-08-17T02:35:26.669Z,0.00
2018-08-17T02:36:47.589Z,0.00
2018-08-17T02:37:26.525Z,0.00
2018-08-17T02:38:26.453Z,0.00
2018-08-17T02:39:47.371Z,0.00
2018-08-17T02:40:26.315Z,0.00
2018-08-17T02:41:47.227Z,0.00
2018-08-17T02:42:26.172Z,0.00
2018-08-17T02:43:26.101Z,0.00
2018-08-17T02:44:47.013Z,0.00
2018-08-17T02:45:25.960Z,0.00
2018-08-17T02:46:46.871Z,0.00
2018-08-17T02:47:25.822Z,0.00
2018-08-17T02:48:25.748Z,0.00
2018-08-17T02:49:46.665Z,0.00
2018-08-17T02:50:25.605Z,0.00
2018-08-17T02:51:46.528Z,0.00
2018-08-17T02:52:25.464Z,0.00
2018-08-17T02:53:25.396Z,0.00
2018-08-17T02:54:46.307Z,0.00
2018-08-17T02:55:25.254Z,0.00
2018-08-17T02:56:46.168Z,0.00
2018-08-17T02:57:25.112Z,0.00
2018-08-17T02:58:25.038Z,0.00
2018-08-17T02:59:45.955Z,0.00
2018-08-17T03:00:24.898Z,0.00
2018-08-17T03:01:45.811Z,0.00
2018-08-17T03:02:24.756Z,0.00
2018-08-17T03:03:24.687Z,0.00
2018-08-17T03:04:45.602Z,0.00
2018-08-17T03:05:24.564Z,0.00
2018-08-17T03:06:45.467Z,0.00
2018-08-17T03:07:24.438Z,0.00
2018-08-17T03:08:24.334Z,0.00
2018-08-17T03:09:45.254Z,0.00
2018-08-17T03:10:24.192Z,0.00
2018-08-17T03:11:45.102Z,0.00
2018-08-17T03:12:24.061Z,0.00
2018-08-17T03:13:23.987Z,0.00
2018-08-17T03:14:44.894Z,0.00
2018-08-17T03:15:23.836Z,0.00
2018-08-17T03:16:44.751Z,0.00
2018-08-17T03:17:23.696Z,0.00
2018-08-17T03:18:23.627Z,0.00
2018-08-17T03:19:44.537Z,0.00
2018-08-17T03:20:23.490Z,0.00
2018-08-17T03:21:44.397Z,0.00
2018-08-17T03:22:23.342Z,0.00
2018-08-17T03:23:23.275Z,0.00
2018-08-17T03:24:44.190Z,0.00
2018-08-17T03:25:23.135Z,0.00
2018-08-17T03:26:44.042Z,0.00
2018-08-17T03:27:22.994Z,0.00
2018-08-17T03:28:22.921Z,0.00
2018-08-17T03:29:43.833Z,0.00
2018-08-17T03:30:22.781Z,0.00
2018-08-17T03:31:43.689Z,0.00
2018-08-17T03:32:22.635Z,0.00
2018-08-17T03:33:22.566Z,0.00
2018-08-17T03:34:43.479Z,0.00
2018-08-17T03:35:22.426Z,0.00
2018-08-17T03:36:43.343Z,0.00
2018-08-17T03:37:22.287Z,0.00
2018-08-17T03:38:22.217Z,0.00
2018-08-17T03:39:43.131Z,0.00
2018-08-17T03:40:22.073Z,0.00
2018-08-17T03:41:42.987Z,0.00
2018-08-17T03:42:21.932Z,0.00
2018-08-17T03:43:21.860Z,0.00
2018-08-17T03:44:42.780Z,0.00
2018-08-17T03:45:21.724Z,0.00
2018-08-17T03:46:42.638Z,0.00
2018-08-17T03:47:21.578Z,0.00
2018-08-17T03:48:21.508Z,0.00
2018-08-17T03:49:42.427Z,0.00
2018-08-17T03:50:21.366Z,0.00
2018-08-17T03:51:42.286Z,0.00
2018-08-17T03:52:21.223Z,0.00
2018-08-17T03:53:21.156Z,0.00
2018-08-17T03:54:42.068Z,0.00
2018-08-17T03:55:21.020Z,0.00
2018-08-17T03:56:41.930Z,0.00
2018-08-17T03:57:20.876Z,0.00
2018-08-17T03:58:20.805Z,0.00
2018-08-17T03:59:41.712Z,0.00
2018-08-17T04:00:20.660Z,0.00
2018-08-17T04:01:41.578Z,0.00
2018-08-17T04:02:20.523Z,0.00
2018-08-17T04:03:20.450Z,0.00
2018-08-17T04:04:41.369Z,0.00
2018-08-17T04:05:20.312Z,0.00
2018-08-17T04:06:41.222Z,0.00
2018-08-17T04:07:20.171Z,0.00
2018-08-17T04:08:20.104Z,0.00
2018-08-17T04:09:41.016Z,0.00
2018-08-17T04:10:19.954Z,0.00
2018-08-17T04:11:40.865Z,0.00
2018-08-17T04:12:19.818Z,0.00
2018-08-17T04:13:19.751Z,0.00
2018-08-17T04:14:40.660Z,0.00
2018-08-17T04:15:19.657Z,0.00
2018-08-17T04:16:40.517Z,0.00
2018-08-17T04:17:19.460Z,0.00
2018-08-17T04:18:19.395Z,0.00
2018-08-17T04:19:40.308Z,0.00
2018-08-17T04:20:19.252Z,0.00
2018-08-17T04:21:40.164Z,0.00
2018-08-17T04:22:19.110Z,0.00
2018-08-17T04:23:19.036Z,0.00
2018-08-17T04:24:39.952Z,0.00
2018-08-17T04:25:18.895Z,5.63
2018-08-17T04:26:39.809Z,5.63
2018-08-17T04:27:18.754Z,5.63
2018-08-17T04:28:18.692Z,5.63
2018-08-17T04:29:39.599Z,5.63
2018-08-17T04:30:18.549Z,5.63
2018-08-17T04:31:39.458Z,5.63
2018-08-17T04:32:18.397Z,5.63
2018-08-17T04:33:18.341Z,5.63
2018-08-17T04:34:39.245Z,5.63
2018-08-17T04:35:18.221Z,11.25
2018-08-17T04:36:39.106Z,11.25
2018-08-17T04:37:18.052Z,11.25
2018-08-17T04:38:17.980Z,11.25
2018-08-17T04:39:38.893Z,11.25
2018-08-17T04:40:17.837Z,11.25
2018-08-17T04:41:38.750Z,11.25
2018-08-17T04:42:17.702Z,11.25
2018-08-17T04:43:17.622Z,11.25
2018-08-17T04:44:38.548Z,16.88
2018-08-17T04:45:17.484Z,16.88
2018-08-17T04:46:38.429Z,16.88
2018-08-17T04:47:17.344Z,16.88
2018-08-17T04:48:17.273Z,16.88
2018-08-17T04:49:38.197Z,16.88
2018-08-17T04:50:17.140Z,16.88
2018-08-17T04:51:38.042Z,16.88
2018-08-17T04:52:16.990Z,16.88
2018-08-17T04:53:16.924Z,16.88
2018-08-17T04:54:37.832Z,16.88
2018-08-17T04:55:16.777Z,16.88
2018-08-17T04:56:37.686Z,22.50
2018-08-17T04:57:16.638Z,22.50
2018-08-17T04:58:16.565Z,22.50
2018-08-17T04:59:37.477Z,22.50
2018-08-17T05:00:16.429Z,22.50
2018-08-17T05:01:37.333Z,22.50
2018-08-17T05:02:16.289Z,28.13
2018-08-17T05:03:16.219Z,33.75
2018-08-17T05:04:37.128Z,33.75
2018-08-17T05:05:16.070Z,33.75
2018-08-17T05:06:36.987Z,39.38
2018-08-17T05:07:15.925Z,39.38
2018-08-17T05:08:15.867Z,39.38
2018-08-17T05:09:36.771Z,45.00
2018-08-17T05:10:15.717Z,45.00
2018-08-17T05:11:36.640Z,50.63
2018-08-17T05:12:15.577Z,50.63
2018-08-17T05:13:15.509Z,50.63
2018-08-17T05:14:36.422Z,50.63
2018-08-17T05:15:15.367Z,50.63
2018-08-17T05:16:36.280Z,56.25
2018-08-17T05:17:15.230Z,61.88
2018-08-17T05:18:15.156Z,56.25
2018-08-17T05:19:36.067Z,56.25
2018-08-17T05:20:15.009Z,56.25
2018-08-17T05:21:36.049Z,50.63
2018-08-17T05:22:14.886Z,50.63
2018-08-17T05:23:14.853Z,50.63
2018-08-17T05:24:35.724Z,56.25
2018-08-17T05:25:14.672Z,56.25
2018-08-17T05:26:35.581Z,61.88
2018-08-17T05:27:14.523Z,56.25
2018-08-17T05:28:14.455Z,50.63
2018-08-17T05:29:35.362Z,56.25
2018-08-17T05:30:14.337Z,61.88
2018-08-17T05:31:35.226Z,78.75
2018-08-17T05:32:14.168Z,73.13
2018-08-17T05:33:14.101Z,61.88
2018-08-17T05:34:35.015Z,56.25
2018-08-17T05:35:13.960Z,61.88
2018-08-17T05:36:34.878Z,73.13
2018-08-17T05:37:13.816Z,78.75
2018-08-17T05:38:13.751Z,84.38
2018-08-17T05:39:34.662Z,78.75
2018-08-17T05:40:13.612Z,78.75
2018-08-17T05:41:34.528Z,78.75
2018-08-17T05:42:13.468Z,84.38
2018-08-17T05:43:13.399Z,90.00
2018-08-17T05:44:34.353Z,84.38
2018-08-17T05:45:13.344Z,78.75
2018-08-17T05:46:34.173Z,84.38
2018-08-17T05:47:13.122Z,78.75
2018-08-17T05:48:13.050Z,84.38
2018-08-17T05:49:33.962Z,78.75
2018-08-17T05:50:12.916Z,84.38
2018-08-17T05:51:33.823Z,84.38
2018-08-17T05:52:12.766Z,78.75
2018-08-17T05:53:12.696Z,90.00
2018-08-17T05:54:33.614Z,95.63
2018-08-17T05:55:12.558Z,95.63
2018-08-17T05:56:33.505Z,95.63
2018-08-17T05:57:12.423Z,106.88
2018-08-17T05:58:12.347Z,106.88
2018-08-17T05:59:33.260Z,118.13
2018-08-17T06:00:12.206Z,129.38
2018-08-17T06:01:33.119Z,146.25
2018-08-17T06:02:12.068Z,140.63
2018-08-17T06:03:12.003Z,135.00
2018-08-17T06:04:32.913Z,118.13
2018-08-17T06:05:11.860Z,106.88
2018-08-17T06:06:32.781Z,84.38
2018-08-17T06:07:11.732Z,73.13
2018-08-17T06:08:11.654Z,61.88
2018-08-17T06:09:32.564Z,50.63
2018-08-17T06:10:11.530Z,39.38
2018-08-17T06:11:32.447Z,33.75
2018-08-17T06:12:11.377Z,22.50
2018-08-17T06:13:11.309Z,22.50
2018-08-17T06:14:32.242Z,22.50
2018-08-17T06:15:11.160Z,16.88
2018-08-17T06:16:32.081Z,16.88
2018-08-17T06:17:11.021Z,16.88
2018-08-17T06:18:10.956Z,22.50
2018-08-17T06:19:31.863Z,33.75
2018-08-17T06:20:10.810Z,39.38
2018-08-17T06:21:31.725Z,39.38
2018-08-17T06:22:10.672Z,56.25
2018-08-17T06:23:10.608Z,67.50
2018-08-17T06:24:31.518Z,73.13
2018-08-17T06:25:10.464Z,95.63
2018-08-17T06:26:31.378Z,106.88
2018-08-17T06:27:10.323Z,123.75
2018-08-17T06:28:10.253Z,129.38
2018-08-17T06:29:31.171Z,129.38
2018-08-17T06:30:10.121Z,157.50
2018-08-17T06:31:31.043Z,191.25
2018-08-17T06:32:09.990Z,185.63
2018-08-17T06:33:09.913Z,174.38
2018-08-17T06:34:30.821Z,163.13
2018-08-17T06:35:09.769Z,135.00
2018-08-17T06:36:30.680Z,140.63
2018-08-17T06:37:09.744Z,151.88
2018-08-17T06:38:09.561Z,174.38
2018-08-17T06:39:30.469Z,174.38
2018-08-17T06:40:09.436Z,191.25
2018-08-17T06:41:30.334Z,213.75
2018-08-17T06:42:09.292Z,236.25
2018-08-17T06:43:09.216Z,253.13
2018-08-17T06:44:30.133Z,264.38
2018-08-17T06:45:09.078Z,281.25
2018-08-17T06:46:29.991Z,315.00
2018-08-17T06:47:08.932Z,292.50
2018-08-17T06:48:08.860Z,247.50
2018-08-17T06:49:29.783Z,202.50
2018-08-17T06:50:08.730Z,151.88
2018-08-17T06:51:29.643Z,118.13
2018-08-17T06:52:08.587Z,118.13
2018-08-17T06:53:08.517Z,129.38
2018-08-17T06:54:29.430Z,135.00
2018-08-17T06:55:08.378Z,140.63
2018-08-17T06:56:29.296Z,123.75
2018-08-17T06:57:08.287Z,106.88
2018-08-17T06:58:08.177Z,78.75
2018-08-17T06:59:29.084Z,56.25
2018-08-17T07:00:08.047Z,45.00
2018-08-17T07:01:28.956Z,39.38
2018-08-17T07:02:07.895Z,33.75
2018-08-17T07:03:07.826Z,33.75
2018-08-17T07:04:28.743Z,28.13
2018-08-17T07:05:07.690Z,33.75
2018-08-17T07:06:28.608Z,33.75
2018-08-17T07:07:07.546Z,39.38
2018-08-17T07:08:07.485Z,39.38
2018-08-17T07:09:28.448Z,45.00
2018-08-17T07:10:07.344Z,45.00
2018-08-17T07:11:28.262Z,50.63
2018-08-17T07:12:07.208Z,56.25
2018-08-17T07:13:07.132Z,61.88
2018-08-17T07:14:28.053Z,67.50
2018-08-17T07:15:06.994Z,78.75
2018-08-17T07:16:27.948Z,84.38
2018-08-17T07:17:06.866Z,95.63
2018-08-17T07:18:06.789Z,106.88
2018-08-17T07:19:27.698Z,118.13
2018-08-17T07:20:06.651Z,123.75
2018-08-17T07:21:27.587Z,123.75
2018-08-17T07:22:06.516Z,123.75
2018-08-17T07:23:06.457Z,123.75
2018-08-17T07:24:27.357Z,123.75
2018-08-17T07:25:06.308Z,129.38
2018-08-17T07:26:27.217Z,135.00
2018-08-17T07:27:06.162Z,146.25
2018-08-17T07:28:06.115Z,168.75
2018-08-17T07:29:27.008Z,191.25
2018-08-17T07:30:05.971Z,208.13
2018-08-17T07:31:26.883Z,219.38
2018-08-17T07:32:05.825Z,225.00
2018-08-17T07:33:05.746Z,230.63
2018-08-17T07:34:26.660Z,230.63
2018-08-17T07:35:05.616Z,230.63
2018-08-17T07:36:26.522Z,230.63
2018-08-17T07:37:05.462Z,230.63
2018-08-17T07:38:05.394Z,230.63
2018-08-17T07:39:26.323Z,236.25
2018-08-17T07:40:05.259Z,236.25
2018-08-17T07:41:26.177Z,247.50
2018-08-17T07:42:05.114Z,236.25
2018-08-17T07:43:05.052Z,230.63
2018-08-17T07:44:25.968Z,236.25
2018-08-17T07:45:04.913Z,230.63
2018-08-17T07:46:25.821Z,230.63
2018-08-17T07:47:04.766Z,219.38
2018-08-17T07:48:04.787Z,208.13
2018-08-17T07:49:25.616Z,196.88
2018-08-17T07:50:04.567Z,191.25
2018-08-17T07:51:25.475Z,185.63
2018-08-17T07:52:04.419Z,196.88
2018-08-17T07:53:04.356Z,202.50
2018-08-17T07:54:25.264Z,202.50
2018-08-17T07:55:04.217Z,196.88
2018-08-17T07:56:25.128Z,191.25
2018-08-17T07:57:04.074Z,202.50
2018-08-17T07:58:04.009Z,202.50
2018-08-17T07:59:24.924Z,208.13
2018-08-17T08:00:03.869Z,208.13
2018-08-17T08:01:24.779Z,219.38
2018-08-17T08:02:03.734Z,230.63
2018-08-17T08:03:03.656Z,230.63
2018-08-17T08:04:24.569Z,236.25
2018-08-17T08:05:03.513Z,253.13
2018-08-17T08:06:24.432Z,264.38
2018-08-17T08:07:03.379Z,253.13
2018-08-17T08:08:03.305Z,253.13
2018-08-17T08:09:24.230Z,270.00
2018-08-17T08:10:03.192Z,264.38
2018-08-17T08:11:24.085Z,258.75
2018-08-17T08:12:03.031Z,258.75
2018-08-17T08:13:02.972Z,275.63
2018-08-17T08:14:23.880Z,286.88
2018-08-17T08:15:02.828Z,286.88
2018-08-17T08:16:23.741Z,298.13
2018-08-17T08:17:02.688Z,315.00
2018-08-17T08:18:02.621Z,315.00
2018-08-17T08:19:23.538Z,298.13
2018-08-17T08:20:02.481Z,270.00
2018-08-17T08:21:23.393Z,253.13
2018-08-17T08:22:02.343Z,253.13
2018-08-17T08:23:02.275Z,241.88
2018-08-17T08:24:23.187Z,253.13
2018-08-17T08:25:02.150Z,270.00
2018-08-17T08:26:23.056Z,303.75
2018-08-17T08:27:02.010Z,326.25
2018-08-17T08:28:01.931Z,348.75
2018-08-17T08:29:22.848Z,348.75
2018-08-17T08:30:01.821Z,354.38
2018-08-17T08:31:22.725Z,354.38
2018-08-17T08:32:01.658Z,326.25
2018-08-17T08:33:01.594Z,303.75
2018-08-17T08:34:22.507Z,303.75
2018-08-17T08:35:01.451Z,331.88
2018-08-17T08:36:22.365Z,360.00
2018-08-17T08:37:01.318Z,416.25
2018-08-17T08:38:01.248Z,360.00
2018-08-17T08:39:22.162Z,320.63
2018-08-17T08:40:01.159Z,292.50
2018-08-17T08:41:22.029Z,219.38
2018-08-17T08:42:00.981Z,185.63
2018-08-17T08:43:00.917Z,151.88
2018-08-17T08:44:21.826Z,135.00
2018-08-17T08:45:00.775Z,135.00
2018-08-17T08:46:21.689Z,146.25
2018-08-17T08:47:00.637Z,146.25
2018-08-17T08:48:00.569Z,140.63
2018-08-17T08:49:21.491Z,135.00
2018-08-17T08:50:00.434Z,135.00
2018-08-17T08:51:21.358Z,129.38
2018-08-17T08:52:00.301Z,129.38
2018-08-17T08:53:00.229Z,135.00
2018-08-17T08:54:21.158Z,135.00
2018-08-17T08:55:00.102Z,135.00
2018-08-17T08:56:21.025Z,135.00
2018-08-17T08:56:59.969Z,146.25
2018-08-17T08:57:59.895Z,151.88
2018-08-17T08:59:20.814Z,168.75
2018-08-17T08:59:59.756Z,174.38
2018-08-17T09:01:20.676Z,185.63
2018-08-17T09:01:59.636Z,185.63
2018-08-17T09:02:59.556Z,180.00
2018-08-17T09:04:20.468Z,174.38
2018-08-17T09:04:59.427Z,168.75
2018-08-17T09:06:20.340Z,157.50
2018-08-17T09:06:59.282Z,168.75
2018-08-17T09:07:59.219Z,180.00
2018-08-17T09:09:20.128Z,196.88
2018-08-17T09:09:59.080Z,208.13
2018-08-17T09:11:20.010Z,219.38
2018-08-17T09:11:58.936Z,230.63
2018-08-17T09:12:58.888Z,241.88
2018-08-17T09:14:19.788Z,247.50
2018-08-17T09:14:58.738Z,247.50
2018-08-17T09:16:19.647Z,247.50
2018-08-17T09:16:58.604Z,253.13
2018-08-17T09:17:58.534Z,270.00
2018-08-17T09:19:19.442Z,281.25
2018-08-17T09:19:58.390Z,461.25
2018-08-17T09:21:19.304Z,489.38
2018-08-17T09:21:58.281Z,483.75
2018-08-17T09:22:58.183Z,376.88
2018-08-17T09:24:19.097Z,444.38
2018-08-17T09:24:58.047Z,405.00
2018-08-17T09:26:18.961Z,292.50
2018-08-17T09:26:57.907Z,388.13
2018-08-17T09:27:57.839Z,444.38
2018-08-17T09:29:18.869Z,455.63
2018-08-17T09:29:57.721Z,433.13
2018-08-17T09:31:18.621Z,495.00
2018-08-17T09:31:57.579Z,528.75
2018-08-17T09:32:57.508Z,528.75
2018-08-17T09:34:18.420Z,511.88
2018-08-17T09:34:57.372Z,540.00
2018-08-17T09:36:18.293Z,562.50
2018-08-17T09:36:57.245Z,568.13
2018-08-17T09:37:57.174Z,579.38
2018-08-17T09:39:18.102Z,579.38
2018-08-17T09:39:57.044Z,551.25
2018-08-17T09:41:17.964Z,540.00
2018-08-17T09:41:56.950Z,607.50
2018-08-17T09:42:56.865Z,607.50
2018-08-17T09:44:17.772Z,607.50
2018-08-17T09:44:56.731Z,506.25
2018-08-17T09:46:17.651Z,601.88
2018-08-17T09:46:56.599Z,601.88
2018-08-17T09:47:56.544Z,613.13
2018-08-17T09:49:17.463Z,618.75
2018-08-17T09:49:56.421Z,624.38
2018-08-17T09:51:17.357Z,646.88
2018-08-17T09:51:56.291Z,455.63
2018-08-17T09:52:56.230Z,663.75
2018-08-17T09:54:17.154Z,635.63
2018-08-17T09:54:56.108Z,562.50
2018-08-17T09:56:17.032Z,658.13
2018-08-17T09:56:55.986Z,663.75
2018-08-17T09:57:55.931Z,686.25
2018-08-17T09:59:16.854Z,691.88
2018-08-17T09:59:55.804Z,686.25
2018-08-17T10:01:16.737Z,686.25
2018-08-17T10:01:55.689Z,691.88
2018-08-17T10:02:55.624Z,703.13
2018-08-17T10:04:16.632Z,691.88
2018-08-17T10:04:55.503Z,731.25
2018-08-17T10:06:16.432Z,787.50
2018-08-17T10:06:55.391Z,781.88
2018-08-17T10:07:55.323Z,866.25
2018-08-17T10:09:16.260Z,877.50
2018-08-17T10:09:55.210Z,815.63
2018-08-17T10:11:16.131Z,973.13
2018-08-17T10:11:55.089Z,450.00
2018-08-17T10:12:55.028Z,596.25
2018-08-17T10:14:15.962Z,556.88
2018-08-17T10:14:54.945Z,405.00
2018-08-17T10:16:15.842Z,343.13
2018-08-17T10:16:54.790Z,961.88
2018-08-17T10:17:54.733Z,1057.50
2018-08-17T10:19:15.789Z,748.13
2018-08-17T10:19:54.637Z,1057.50
2018-08-17T10:21:15.752Z,1361.25
2018-08-17T10:21:54.744Z,1513.13
2018-08-17T10:22:54.434Z,990.00
2018-08-17T10:24:15.365Z,331.88
2018-08-17T10:24:54.319Z,354.38
2018-08-17T10:26:15.238Z,337.50
2018-08-17T10:26:54.220Z,416.25
2018-08-17T10:27:54.139Z,382.50
2018-08-17T10:29:15.057Z,236.25
2018-08-17T10:29:54.007Z,230.63
2018-08-17T10:31:14.928Z,258.75
2018-08-17T10:31:53.881Z,292.50
2018-08-17T10:32:53.844Z,315.00
2018-08-17T10:34:14.741Z,320.63
2018-08-17T10:34:53.693Z,399.38
2018-08-17T10:36:14.613Z,393.75
2018-08-17T10:36:53.565Z,427.50
2018-08-17T10:37:53.512Z,461.25
2018-08-17T10:39:14.428Z,528.75
2018-08-17T10:39:53.374Z,562.50
2018-08-17T10:41:14.295Z,534.38
2018-08-17T10:41:53.245Z,511.88
2018-08-17T10:42:53.178Z,556.88
2018-08-17T10:44:14.103Z,590.63
2018-08-17T10:44:53.049Z,506.25
2018-08-17T10:46:13.975Z,517.50
2018-08-17T10:46:52.917Z,511.88
2018-08-17T10:47:52.854Z,540.00
2018-08-17T10:49:13.785Z,624.38
2018-08-17T10:49:52.721Z,641.25
2018-08-17T10:51:13.643Z,624.38
2018-08-17T10:51:52.600Z,703.13
2018-08-17T10:52:52.524Z,680.63
2018-08-17T10:54:13.445Z,680.63
2018-08-17T10:54:52.408Z,500.63
2018-08-17T10:56:13.355Z,444.38
2018-08-17T10:56:52.258Z,371.25
2018-08-17T10:57:52.193Z,376.88
2018-08-17T10:59:13.118Z,421.88
2018-08-17T10:59:52.060Z,472.50
2018-08-17T11:01:12.979Z,489.38
2018-08-17T11:01:51.930Z,545.63
2018-08-17T11:02:51.863Z,630.00
2018-08-17T11:04:12.785Z,765.00
2018-08-17T11:04:51.734Z,675.00
2018-08-17T11:06:12.650Z,517.50
2018-08-17T11:06:51.596Z,421.88
2018-08-17T11:07:51.532Z,410.63
2018-08-17T11:09:12.450Z,438.75
2018-08-17T11:09:51.397Z,528.75
2018-08-17T11:11:12.314Z,641.25
2018-08-17T11:11:51.264Z,568.13
2018-08-17T11:12:51.199Z,511.88
2018-08-17T11:14:12.137Z,461.25
2018-08-17T11:14:51.076Z,466.88
2018-08-17T11:16:11.990Z,483.75
2018-08-17T11:16:50.939Z,500.63
2018-08-17T11:17:50.866Z,568.13
2018-08-17T11:19:11.788Z,478.13
2018-08-17T11:19:50.732Z,517.50
2018-08-17T11:21:11.648Z,562.50
2018-08-17T11:21:50.601Z,511.88
2018-08-17T11:22:50.550Z,511.88
2018-08-17T11:24:11.448Z,601.88
2018-08-17T11:24:50.400Z,686.25
2018-08-17T11:26:11.324Z,843.75
2018-08-17T11:26:50.270Z,821.25
2018-08-17T11:27:50.199Z,697.50
2018-08-17T11:29:11.120Z,669.38
2018-08-17T11:29:50.068Z,635.63
2018-08-17T11:31:10.984Z,748.13
2018-08-17T11:31:49.935Z,759.38
2018-08-17T11:32:49.870Z,691.88
2018-08-17T11:34:10.787Z,658.13
2018-08-17T11:34:49.734Z,731.25
2018-08-17T11:36:10.650Z,714.38
2018-08-17T11:36:49.612Z,691.88
2018-08-17T11:37:49.533Z,781.88
2018-08-17T11:39:10.452Z,781.88
2018-08-17T11:39:49.398Z,641.25
2018-08-17T11:41:10.328Z,618.75
2018-08-17T11:41:49.266Z,686.25
2018-08-17T11:42:49.202Z,720.00
2018-08-17T11:44:10.125Z,770.63
2018-08-17T11:44:49.070Z,1040.63
2018-08-17T11:46:09.988Z,652.50
2018-08-17T11:46:48.947Z,562.50
2018-08-17T11:47:48.871Z,540.00
2018-08-17T11:49:09.793Z,534.38
2018-08-17T11:49:48.740Z,523.13
2018-08-17T11:51:09.658Z,585.00
2018-08-17T11:51:48.611Z,641.25
2018-08-17T11:52:48.542Z,691.88
2018-08-17T11:54:09.462Z,669.38
2018-08-17T11:54:48.410Z,691.88
2018-08-17T11:56:09.325Z,663.75
2018-08-17T11:56:48.277Z,573.75
2018-08-17T11:57:48.216Z,551.25
2018-08-17T11:59:09.131Z,517.50
2018-08-17T11:59:48.087Z,528.75
2018-08-17T12:01:09.091Z,568.13
2018-08-17T12:01:47.957Z,585.00
2018-08-17T12:02:47.880Z,646.88
2018-08-17T12:04:08.801Z,607.50
2018-08-17T12:04:47.753Z,590.63
2018-08-17T12:06:08.669Z,669.38
2018-08-17T12:06:47.625Z,646.88
2018-08-17T12:07:47.557Z,630.00
2018-08-17T12:09:08.476Z,624.38
2018-08-17T12:09:47.417Z,646.88
2018-08-17T12:11:08.338Z,596.25
2018-08-17T12:11:47.284Z,601.88
2018-08-17T12:12:47.219Z,613.13
2018-08-17T12:14:08.136Z,585.00
2018-08-17T12:14:47.084Z,607.50
2018-08-17T12:16:08.007Z,630.00
2018-08-17T12:16:46.959Z,618.75
2018-08-17T12:17:46.894Z,635.63
2018-08-17T12:19:07.813Z,669.38
2018-08-17T12:19:46.752Z,573.75
2018-08-17T12:21:07.674Z,405.00
2018-08-17T12:21:46.625Z,343.13
2018-08-17T12:22:46.559Z,360.00
2018-08-17T12:24:07.489Z,376.88
2018-08-17T12:24:46.439Z,540.00
2018-08-17T12:26:07.348Z,562.50
2018-08-17T12:26:46.294Z,466.88
2018-08-17T12:27:46.225Z,388.13
2018-08-17T12:29:07.147Z,337.50
2018-08-17T12:29:46.096Z,315.00
2018-08-17T12:31:07.009Z,320.63
2018-08-17T12:31:45.957Z,343.13
2018-08-17T12:32:45.906Z,348.75
2018-08-17T12:34:06.857Z,348.75
2018-08-17T12:34:45.761Z,337.50
2018-08-17T12:36:06.692Z,320.63
2018-08-17T12:36:45.629Z,320.63
2018-08-17T12:37:45.564Z,343.13
2018-08-17T12:39:06.490Z,376.88
2018-08-17T12:39:45.427Z,405.00
2018-08-17T12:41:06.343Z,354.38
2018-08-17T12:41:45.295Z,354.38
2018-08-17T12:42:45.224Z,382.50
2018-08-17T12:44:06.167Z,376.88
2018-08-17T12:44:45.090Z,376.88
2018-08-17T12:46:06.009Z,421.88
2018-08-17T12:46:44.959Z,410.63
2018-08-17T12:47:44.888Z,376.88
2018-08-17T12:49:05.819Z,348.75